Pede Vento — CRLZ9 — position and weather

sailwx.info

Track history (hours):
 
Tides and Currents Weather Stations Pressure Air Temp Water Temp Dewpoint Dewpoint Depression Visibility Wind Speed Wind Dir Waves Ship Positions

Pede Vento

Last reported at 2014-Dec-09 12:33 UTC. Time now 2014-Dec-22 20:35 UTC.
Position N 38°42' W 009°10'.
Warning: this ship's position is 13 days out of date.

Length 12 m.

Type: Sailing vessel. MMSI: 263819560.

Date/timePositionNaut miles runAvg speedWind from/ knotsBaromVisibWave heightAir tempDewpointWater temp
2014-Dec-09 12:33N 38°42' W 009°10'0 0.0
2014-Dec-08 17:20N 38°42' W 009°10'0 0.3
2014-Dec-08 16:34N 38°42' W 009°10'5 4.6
2014-Dec-08 15:30N 38°41' W 009°16'5 4.9
2014-Dec-08 14:31N 38°36' W 009°18'6 5.8
2014-Dec-08 13:29N 38°31' W 009°15'5 5.1
2014-Dec-08 12:24N 38°25' W 009°14'1 0.0
2014-Dec-06 15:10N 38°26' W 009°14'5 6.7
2014-Dec-06 14:26N 38°31' W 009°16'6 6.2
2014-Dec-06 13:32N 38°37' W 009°18'5 4.1
2014-Dec-06 12:23N 38°41' W 009°17'4 4.8
2014-Dec-06 11:33N 38°42' W 009°12'  
Track history (hours):
 
Tides and Currents Weather Stations Pressure Air Temp Water Temp Dewpoint Dewpoint Depression Visibility Wind Speed Wind Dir Waves Ship Positions

Pede Vento

Last reported at 2014-Dec-09 12:33 UTC. Time now 2014-Dec-22 20:35 UTC.
Position N 38°42' W 009°10'.
Warning: this ship's position is 13 days out of date.

Length 12 m.

Type: Sailing vessel. MMSI: 263819560.

Date/timePositionNaut miles runAvg speedWind from/ knotsBaromVisibWave heightAir tempDewpointWater temp
2014-Dec-09 12:33N 38°42' W 009°10'0 0.0
2014-Dec-08 17:20N 38°42' W 009°10'0 0.3
2014-Dec-08 16:34N 38°42' W 009°10'5 4.6
2014-Dec-08 15:30N 38°41' W 009°16'5 4.9
2014-Dec-08 14:31N 38°36' W 009°18'6 5.8
2014-Dec-08 13:29N 38°31' W 009°15'5 5.1
2014-Dec-08 12:24N 38°25' W 009°14'1 0.0
2014-Dec-06 15:10N 38°26' W 009°14'5 6.7
2014-Dec-06 14:26N 38°31' W 009°16'6 6.2
2014-Dec-06 13:32N 38°37' W 009°18'5 4.1
2014-Dec-06 12:23N 38°41' W 009°17'4 4.8
2014-Dec-06 11:33N 38°42' W 009°12'  

Dump ship's entire track history